Airfield :
LOGIN :

Register | Disclaimer

   EN    FR    IT 

 










Legend :    VFR   Marginal VFR   IFR   Intensive IFR   Very Intensive IFR
Visi :
Ceiling :
>= 8 km
>= 3000ft
5 to 8 km
1000 to 3000 ft
1500m to 5 km
500 to 1000 ft
800 to 1500m
200 to 500 ft
< 800m
< 200 ft
Symbols :   Thunderstorms  Fog  Heavy snow  Heavy precipitations  Wind > 20 kt
SIGMETs :     Misc.  Thunderstorms  Icing  Turbulence  Mountain Waves  Volcanic Ashes






- Airport Elevation : 20 ft
- IATA code : LSI


EGPB - Sumburgh

CURRENT METAR :
  • 220120Z 32006KT 9999 FEW014 BKN034 10/07 Q1020

EXPIRED METARs :
  • 220050Z 32006KT 9999 FEW014 BKN032 10/07 Q1020
  • 220020Z AUTO 32006KT 9999 BKN037/// 09/07 Q1020
  • 212350Z AUTO 31007KT 9999 FEW015/// OVC039/// 10/07 Q1020
  • 212320Z AUTO 31008KT 9999 BKN015/// OVC029/// 10/07 Q1020
  • 212250Z AUTO 32006KT 9999 OVC034/// 10/06 Q1020

TAF TAF EGPB
Valid from the 22 at 00:00 until the 22 at 09:00 UTC


212255Z 2200/2209 32007KT 9999 SCT035
BECMG 2206/2209 26010KT



MET'MAP, your aeronautical weather chart ! - Copyright ORBIFLY December 2007 - Disclaimer

ORBIFLY MET'MAP TEAM :

Programming & Development : Alexandra Zaïnal
Concept & original design : Baudouin d'Aumeries
Assistance for programming : Marc-Olivier Méhu
Technical & hardware support : Manuel Goepfert

Contact : metmap@orbifly.com




SOURCES & CREDITS :

   NOAA